createdAt,value
2018-06-03T00:00:37.385Z,81.98
2018-06-03T00:01:17.928Z,81.88
2018-06-03T00:01:58.398Z,82.26
2018-06-03T00:02:38.879Z,82.07
2018-06-03T00:03:19.379Z,82.07
2018-06-03T00:03:59.872Z,82.07
2018-06-03T00:04:40.359Z,82.07
2018-06-03T00:05:20.824Z,81.88
2018-06-03T00:06:01.326Z,82.07
2018-06-03T00:06:41.826Z,82.36
2018-06-03T00:07:22.330Z,82.07
2018-06-03T00:08:02.832Z,82.17
2018-06-03T00:08:43.346Z,82.07
2018-06-03T00:09:23.863Z,82.26
2018-06-03T00:10:04.392Z,82.17
2018-06-03T00:10:44.871Z,81.98
2018-06-03T00:11:25.380Z,81.88
2018-06-03T00:12:05.874Z,82.36
2018-06-03T00:12:46.370Z,82.36
2018-06-03T00:13:26.887Z,82.26
2018-06-03T00:14:07.404Z,82.17
2018-06-03T00:14:47.926Z,82.36
2018-06-03T00:15:28.453Z,82.36
2018-06-03T00:16:08.983Z,81.98
2018-06-03T00:16:49.470Z,81.88
2018-06-03T00:17:29.982Z,81.98
2018-06-03T00:18:10.524Z,82.26
2018-06-03T00:18:51.055Z,81.4
2018-06-03T00:19:31.579Z,81.59
2018-06-03T00:20:12.114Z,81.3
2018-06-03T00:20:52.606Z,81.49
2018-06-03T00:21:33.131Z,81.2
2018-06-03T00:22:13.668Z,82.17
2018-06-03T00:22:54.177Z,81.98
2018-06-03T00:23:34.679Z,81.88
2018-06-03T00:24:15.200Z,82.07
2018-06-03T00:24:55.722Z,81.98
2018-06-03T00:25:36.243Z,81.78
2018-06-03T00:26:16.772Z,81.98
2018-06-03T00:26:57.280Z,82.07
2018-06-03T00:27:37.806Z,81.78
2018-06-03T00:28:18.339Z,82.23
2018-06-03T00:28:58.863Z,82.13
2018-06-03T00:29:39.376Z,82.51
2018-06-03T00:30:19.903Z,82.23
2018-06-03T00:31:00.417Z,82.42
2018-06-03T00:31:40.943Z,82.13
2018-06-03T00:32:21.448Z,82.51
2018-06-03T00:33:01.981Z,82.9
2018-06-03T00:33:42.521Z,82.51
2018-06-03T00:34:23.039Z,82.03
2018-06-03T00:35:03.563Z,82.51
2018-06-03T00:35:44.083Z,82.32
2018-06-03T00:36:24.598Z,82.61
2018-06-03T00:37:05.125Z,82.61
2018-06-03T00:37:45.655Z,82.13
2018-06-03T00:38:26.205Z,82.23
2018-06-03T00:39:06.740Z,82.42
2018-06-03T00:39:47.270Z,82.17
2018-06-03T00:40:27.833Z,81.78
2018-06-03T00:41:08.327Z,81.88
2018-06-03T00:41:48.854Z,82.32
2018-06-03T00:42:29.377Z,82.13
2018-06-03T00:43:09.903Z,82.9
2018-06-03T00:43:50.417Z,82.9
2018-06-03T00:44:30.936Z,83.09
2018-06-03T00:45:11.462Z,82.61
2018-06-03T00:45:51.971Z,83.19
2018-06-03T00:46:32.494Z,82.61
2018-06-03T00:47:13.013Z,83.09
2018-06-03T00:47:53.514Z,83
2018-06-03T00:48:33.995Z,83.29
2018-06-03T00:49:14.510Z,82.9
2018-06-03T00:49:55.031Z,83
2018-06-03T00:50:35.549Z,82.9
2018-06-03T00:51:16.073Z,82.9
2018-06-03T00:51:56.609Z,83
2018-06-03T00:52:37.126Z,83.39
2018-06-03T00:53:17.653Z,83.19
2018-06-03T00:53:58.190Z,83.19
2018-06-03T00:54:38.712Z,83.09
2018-06-03T00:55:19.242Z,83.09
2018-06-03T00:55:59.777Z,83.19
2018-06-03T00:56:40.304Z,83.96
2018-06-03T00:57:20.826Z,82.9
2018-06-03T00:58:01.364Z,83.09
2018-06-03T00:58:41.876Z,83.09
2018-06-03T00:59:22.409Z,82.9
2018-06-03T01:00:02.932Z,83.58
2018-06-03T01:00:43.441Z,83.77
2018-06-03T01:01:23.957Z,83.48
2018-06-03T01:02:04.477Z,82.81
2018-06-03T01:02:45.008Z,83.39
2018-06-03T01:03:25.530Z,83.48
2018-06-03T01:04:06.060Z,83.67
2018-06-03T01:04:46.583Z,83.39
2018-06-03T01:05:27.086Z,83.58
2018-06-03T01:06:07.611Z,83.09
2018-06-03T01:06:48.128Z,83
2018-06-03T01:07:28.643Z,83.09
2018-06-03T01:08:09.181Z,83.39
2018-06-03T01:08:49.702Z,82.76
2018-06-03T01:09:30.328Z,83.77
2018-06-03T01:10:10.844Z,83.96
2018-06-03T01:10:51.361Z,83.63
2018-06-03T01:11:31.892Z,84.16
2018-06-03T01:12:12.404Z,83.39
2018-06-03T01:12:52.925Z,83.58
2018-06-03T01:13:33.448Z,83.58
2018-06-03T01:14:13.988Z,84.25
2018-06-03T01:14:54.502Z,83.09
2018-06-03T01:15:35.056Z,84.06
2018-06-03T01:16:15.591Z,83.77
2018-06-03T01:16:56.113Z,83.96
2018-06-03T01:17:36.637Z,83.77
2018-06-03T01:18:17.276Z,83.19
2018-06-03T01:18:57.798Z,83.58
2018-06-03T01:19:38.326Z,83.48
2018-06-03T01:20:18.864Z,82.9
2018-06-03T01:20:59.396Z,82.51
2018-06-03T01:21:39.914Z,82.81
2018-06-03T01:22:20.447Z,82.81
2018-06-03T01:23:00.977Z,83.39
2018-06-03T01:23:41.511Z,83.96
2018-06-03T01:24:22.030Z,83.19
2018-06-03T01:25:02.553Z,83.48
2018-06-03T01:25:43.067Z,83.44
2018-06-03T01:26:23.579Z,83.34
2018-06-03T01:27:04.111Z,83.73
2018-06-03T01:27:44.637Z,83.34
2018-06-03T01:28:25.159Z,83.34
2018-06-03T01:29:05.684Z,83.58
2018-06-03T01:29:46.208Z,83.96
2018-06-03T01:30:26.720Z,83.87
2018-06-03T01:31:07.246Z,83.73
2018-06-03T01:31:47.762Z,83.48
2018-06-03T01:32:28.281Z,83.67
2018-06-03T01:33:08.814Z,83.48
2018-06-03T01:33:49.348Z,83
2018-06-03T01:34:29.864Z,83.19
2018-06-03T01:35:10.394Z,83.39
2018-06-03T01:35:50.927Z,83.39
2018-06-03T01:36:31.441Z,83.58
2018-06-03T01:37:11.943Z,83.87
2018-06-03T01:37:52.492Z,83.77
2018-06-03T01:38:33.016Z,83.58
2018-06-03T01:39:13.551Z,83.09
2018-06-03T01:39:54.073Z,83.29
2018-06-03T01:40:34.598Z,83.09
2018-06-03T01:41:15.127Z,83.05
2018-06-03T01:41:55.653Z,83.67
2018-06-03T01:42:36.185Z,83.53
2018-06-03T01:43:16.702Z,83.63
2018-06-03T01:43:57.231Z,84.21
2018-06-03T01:44:37.748Z,83.63
2018-06-03T01:45:18.278Z,83.83
2018-06-03T01:45:58.826Z,83.39
2018-06-03T01:46:39.369Z,83.58
2018-06-03T01:47:19.872Z,83.58
2018-06-03T01:48:00.395Z,83.67
2018-06-03T01:48:40.915Z,82.9
2018-06-03T01:49:21.471Z,83.09
2018-06-03T01:50:01.928Z,82.81
2018-06-03T01:50:42.433Z,83.58
2018-06-03T01:51:22.944Z,83.67
2018-06-03T01:52:03.462Z,83.09
2018-06-03T01:52:43.981Z,83.39
2018-06-03T01:53:24.498Z,83.34
2018-06-03T01:54:05.031Z,83.92
2018-06-03T01:54:45.543Z,83.48
2018-06-03T01:55:26.077Z,83.53
2018-06-03T01:56:06.574Z,83.53
2018-06-03T01:56:47.051Z,83.44
2018-06-03T01:57:27.545Z,83.15
2018-06-03T01:58:08.042Z,83.34
2018-06-03T01:58:48.557Z,83.29
2018-06-03T01:59:29.081Z,83.39
2018-06-03T02:00:09.620Z,83.53
2018-06-03T02:00:50.134Z,83.19
2018-06-03T02:01:30.656Z,83.48
2018-06-03T02:02:11.172Z,83.77
2018-06-03T02:02:51.692Z,83.63
2018-06-03T02:03:32.218Z,83.25
2018-06-03T02:04:12.737Z,83.53
2018-06-03T02:04:53.271Z,83.53
2018-06-03T02:05:33.784Z,83.63
2018-06-03T02:06:14.300Z,83.87
2018-06-03T02:06:54.810Z,83.77
2018-06-03T02:07:35.333Z,83.39
2018-06-03T02:08:15.850Z,83.73
2018-06-03T02:08:56.378Z,83.44
2018-06-03T02:09:36.904Z,83.39
2018-06-03T02:10:17.423Z,83.44
2018-06-03T02:10:57.942Z,83.92
2018-06-03T02:11:38.462Z,84.21
2018-06-03T02:12:18.982Z,84.21
2018-06-03T02:12:59.512Z,84.01
2018-06-03T02:13:40.024Z,84.11
2018-06-03T02:14:20.550Z,83.92
2018-06-03T02:15:01.057Z,84.21
2018-06-03T02:15:41.573Z,84.01
2018-06-03T02:16:22.084Z,84.59
2018-06-03T02:17:02.605Z,83.83
2018-06-03T02:17:43.146Z,84.11
2018-06-03T02:18:23.660Z,84.01
2018-06-03T02:19:04.175Z,84.01
2018-06-03T02:19:44.702Z,84.41
2018-06-03T02:20:25.229Z,84.5
2018-06-03T02:21:05.752Z,84.59
2018-06-03T02:21:46.288Z,84.98
2018-06-03T02:22:26.809Z,84.89
2018-06-03T02:23:07.335Z,84.79
2018-06-03T02:23:47.866Z,84.89
2018-06-03T02:24:28.386Z,84.79
2018-06-03T02:25:08.903Z,84.98
2018-06-03T02:25:49.424Z,84.5
2018-06-03T02:26:29.951Z,84.31
2018-06-03T02:27:10.469Z,84.5
2018-06-03T02:27:50.981Z,84.98
2018-06-03T02:28:31.491Z,84.69
2018-06-03T02:29:11.988Z,85.37
2018-06-03T02:29:52.511Z,85.08
2018-06-03T02:30:33.047Z,85.17
2018-06-03T02:31:13.559Z,85.17
2018-06-03T02:31:54.095Z,84.89
2018-06-03T02:32:34.622Z,85.17
2018-06-03T02:33:15.135Z,85.37
2018-06-03T02:33:55.652Z,85.33
2018-06-03T02:34:36.186Z,84.59
2018-06-03T02:35:16.707Z,84.79
2018-06-03T02:35:57.224Z,85.37
2018-06-03T02:36:37.754Z,84.79
2018-06-03T02:37:18.296Z,84.69
2018-06-03T02:37:58.818Z,84.98
2018-06-03T02:38:39.336Z,84.98
2018-06-03T02:39:19.854Z,84.79
2018-06-03T02:40:00.377Z,84.98
2018-06-03T02:40:40.887Z,84.5
2018-06-03T02:41:21.414Z,84.65
2018-06-03T02:42:01.945Z,85.37
2018-06-03T02:42:42.467Z,85.17
2018-06-03T02:43:22.974Z,85.17
2018-06-03T02:44:03.494Z,85.17
2018-06-03T02:44:43.997Z,84.98
2018-06-03T02:45:24.522Z,85.17
2018-06-03T02:46:05.037Z,85.52
2018-06-03T02:46:45.546Z,85.33
2018-06-03T02:47:26.053Z,85.46
2018-06-03T02:48:06.562Z,85.42
2018-06-03T02:48:47.075Z,84.94
2018-06-03T02:49:27.600Z,85.17
2018-06-03T02:50:08.121Z,84.55
2018-06-03T02:50:48.663Z,84.59
2018-06-03T02:51:29.181Z,84.79
2018-06-03T02:52:09.696Z,84.79
2018-06-03T02:52:50.203Z,84.89
2018-06-03T02:53:30.722Z,84.89
2018-06-03T02:54:11.255Z,84.89
2018-06-03T02:54:51.778Z,84.59
2018-06-03T02:55:32.301Z,84.5
2018-06-03T02:56:12.817Z,84.69
2018-06-03T02:56:53.331Z,84.79
2018-06-03T02:57:33.850Z,84.89
2018-06-03T02:58:14.367Z,84.5
2018-06-03T02:58:54.879Z,84.41
2018-06-03T02:59:35.389Z,85.27
2018-06-03T03:00:15.903Z,85.23
2018-06-03T03:00:56.420Z,85.46
2018-06-03T03:01:36.944Z,84.98
2018-06-03T03:02:17.449Z,85.08
2018-06-03T03:02:57.974Z,85.17
2018-06-03T03:03:38.499Z,85.27
2018-06-03T03:04:19.018Z,85.17
2018-06-03T03:04:59.544Z,85.81
2018-06-03T03:05:40.058Z,86.19
2018-06-03T03:06:20.565Z,85.81
2018-06-03T03:07:01.075Z,86.39
2018-06-03T03:07:41.596Z,85.91
2018-06-03T03:08:22.083Z,85.91
2018-06-03T03:09:02.575Z,86.58
2018-06-03T03:09:43.078Z,86.39
2018-06-03T03:10:23.641Z,85.81
2018-06-03T03:11:04.113Z,85.61
2018-06-03T03:11:44.637Z,86.19
2018-06-03T03:12:25.126Z,85.37
2018-06-03T03:13:05.621Z,85.75
2018-06-03T03:13:46.141Z,85.85
2018-06-03T03:14:26.639Z,85.71
2018-06-03T03:15:07.177Z,85.52
2018-06-03T03:15:47.634Z,85.56
2018-06-03T03:16:28.143Z,85.66
2018-06-03T03:17:08.655Z,85.66
2018-06-03T03:17:49.124Z,85.27
2018-06-03T03:18:29.617Z,84.89
2018-06-03T03:19:10.156Z,85.08
2018-06-03T03:19:50.605Z,85.08
2018-06-03T03:20:31.125Z,85.17
2018-06-03T03:21:11.598Z,85.37
2018-06-03T03:21:52.184Z,84.79
2018-06-03T03:22:32.654Z,84.59
2018-06-03T03:23:13.127Z,84.5
2018-06-03T03:23:53.585Z,84.69
2018-06-03T03:24:34.103Z,84.89
2018-06-03T03:25:14.615Z,84.41
2018-06-03T03:25:55.106Z,84.79
2018-06-03T03:26:35.581Z,84.79
2018-06-03T03:27:16.082Z,84.79
2018-06-03T03:27:56.573Z,84.69
2018-06-03T03:28:37.100Z,84.79
2018-06-03T03:29:17.586Z,84.69
2018-06-03T03:29:58.086Z,84.79
2018-06-03T03:30:38.595Z,85.13
2018-06-03T03:31:19.128Z,85.08
2018-06-03T03:31:59.640Z,85.08
2018-06-03T03:32:40.167Z,84.94
2018-06-03T03:33:20.682Z,85.08
2018-06-03T03:34:01.204Z,85.17
2018-06-03T03:34:41.718Z,85.37
2018-06-03T03:35:22.238Z,84.94
2018-06-03T03:36:02.754Z,85.08
2018-06-03T03:36:43.268Z,85.27
2018-06-03T03:37:23.783Z,85.08
2018-06-03T03:38:04.307Z,85.17
2018-06-03T03:38:44.820Z,84.5
2018-06-03T03:39:25.332Z,85.37
2018-06-03T03:40:05.841Z,85.27
2018-06-03T03:40:46.370Z,84.69
2018-06-03T03:41:26.892Z,84.59
2018-06-03T03:42:07.401Z,84.79
2018-06-03T03:42:47.929Z,84.89
2018-06-03T03:43:28.426Z,84.69
2018-06-03T03:44:08.966Z,85.37
2018-06-03T03:44:49.476Z,85.27
2018-06-03T03:45:30.013Z,84.59
2018-06-03T03:46:10.531Z,84.31
2018-06-03T03:46:51.080Z,84.41
2018-06-03T03:47:31.601Z,84.41
2018-06-03T03:48:12.124Z,84.31
2018-06-03T03:48:52.638Z,84.31
2018-06-03T03:49:33.160Z,84.01
2018-06-03T03:50:13.683Z,84.31
2018-06-03T03:50:54.199Z,84.11
2018-06-03T03:51:34.719Z,83.73
2018-06-03T03:52:15.236Z,83.73
2018-06-03T03:52:55.767Z,83.92
2018-06-03T03:53:36.283Z,84.21
2018-06-03T03:54:16.794Z,84.41
2018-06-03T03:54:57.293Z,83.83
2018-06-03T03:55:37.774Z,83.73
2018-06-03T03:56:18.250Z,84.11
2018-06-03T03:56:58.765Z,83.96
2018-06-03T03:57:39.241Z,83.87
2018-06-03T03:58:19.770Z,83.77
2018-06-03T03:59:00.290Z,83.48
2018-06-03T03:59:40.811Z,83.29
2018-06-03T04:00:21.319Z,83.25
2018-06-03T04:01:01.834Z,83.96
2018-06-03T04:01:42.370Z,83.58
2018-06-03T04:02:22.893Z,83.39
2018-06-03T04:03:03.431Z,83.39
2018-06-03T04:03:43.960Z,83.19
2018-06-03T04:04:24.469Z,83.58
2018-06-03T04:05:04.983Z,83.77
2018-06-03T04:05:45.506Z,83.48
2018-06-03T04:06:26.023Z,82.81
2018-06-03T04:07:06.553Z,83.58
2018-06-03T04:07:47.064Z,83.29
2018-06-03T04:08:27.589Z,83.63
2018-06-03T04:09:08.113Z,83.48
2018-06-03T04:09:48.631Z,82.81
2018-06-03T04:10:29.163Z,82.71
2018-06-03T04:11:09.683Z,83
2018-06-03T04:11:50.220Z,83.67
2018-06-03T04:12:30.726Z,83
2018-06-03T04:13:11.257Z,83.09
2018-06-03T04:13:51.775Z,82.9
2018-06-03T04:14:32.284Z,82.42
2018-06-03T04:15:12.824Z,82.61
2018-06-03T04:15:53.336Z,82.81
2018-06-03T04:16:33.864Z,82.9
2018-06-03T04:17:14.381Z,82.23
2018-06-03T04:17:54.910Z,82.61
2018-06-03T04:18:35.434Z,82.81
2018-06-03T04:19:15.938Z,82.71
2018-06-03T04:19:56.467Z,82.81
2018-06-03T04:20:36.988Z,82.23
2018-06-03T04:21:17.500Z,82.65
2018-06-03T04:21:58.008Z,82.42
2018-06-03T04:22:38.523Z,82.32
2018-06-03T04:23:19.048Z,82.42
2018-06-03T04:23:59.575Z,82.32
2018-06-03T04:24:40.093Z,82.75
2018-06-03T04:25:20.616Z,82.42
2018-06-03T04:26:01.147Z,82.42
2018-06-03T04:26:41.668Z,82.65
2018-06-03T04:27:22.189Z,82.17
2018-06-03T04:28:02.712Z,82.75
2018-06-03T04:28:43.232Z,81.88
2018-06-03T04:29:23.757Z,82.07
2018-06-03T04:30:04.271Z,82.26
2018-06-03T04:30:44.784Z,81.78
2018-06-03T04:31:25.321Z,82.07
2018-06-03T04:32:05.840Z,81.15
2018-06-03T04:32:46.369Z,80.47
2018-06-03T04:33:26.891Z,80.08
2018-06-03T04:34:07.428Z,78.91
2018-06-03T04:34:47.952Z,75.83
2018-06-03T04:35:28.469Z,72.8
2018-06-03T04:36:08.992Z,71.93
2018-06-03T04:36:49.531Z,72.09
2018-06-03T04:37:30.042Z,73.69
2018-06-03T04:38:10.562Z,74.92
2018-06-03T04:38:51.079Z,74.79
2018-06-03T04:39:31.604Z,76.04
2018-06-03T04:40:12.120Z,76.49
2018-06-03T04:40:52.636Z,76.68
2018-06-03T04:41:33.158Z,77.36
2018-06-03T04:42:13.687Z,77.36
2018-06-03T04:42:54.216Z,78.03
2018-06-03T04:43:34.750Z,77.75
2018-06-03T04:44:15.274Z,77.55
2018-06-03T04:44:55.844Z,77.75
2018-06-03T04:45:36.302Z,77.45
2018-06-03T04:46:16.842Z,77.84
2018-06-03T04:46:57.368Z,78.19
2018-06-03T04:47:37.889Z,77.8
2018-06-03T04:48:18.417Z,78.77
2018-06-03T04:48:58.933Z,78.48
2018-06-03T04:49:39.458Z,77.84
2018-06-03T04:50:19.988Z,77.55
2018-06-03T04:51:00.514Z,77.84
2018-06-03T04:51:41.044Z,77.65
2018-06-03T04:52:21.586Z,77.55
2018-06-03T04:53:02.111Z,77.84
2018-06-03T04:53:42.635Z,77.84
2018-06-03T04:54:23.161Z,77.36
2018-06-03T04:55:03.745Z,77.45
2018-06-03T04:55:44.213Z,76.78
2018-06-03T04:56:24.739Z,76.1
2018-06-03T04:57:05.265Z,76.68
2018-06-03T04:57:45.791Z,76.1
2018-06-03T04:58:26.323Z,76.01
2018-06-03T04:59:06.832Z,76.1
2018-06-03T04:59:47.349Z,75.71
2018-06-03T05:00:27.820Z,75.52
2018-06-03T05:01:08.337Z,76.49
2018-06-03T05:01:48.864Z,76.84
2018-06-03T05:02:29.353Z,76.93
2018-06-03T05:03:09.872Z,76.84
2018-06-03T05:03:50.391Z,76.74
2018-06-03T05:04:30.872Z,76.74
2018-06-03T05:05:11.397Z,77.03
2018-06-03T05:05:51.912Z,77.51
2018-06-03T05:06:32.463Z,77.03
2018-06-03T05:07:12.958Z,77.22
2018-06-03T05:07:53.475Z,77.71
2018-06-03T05:08:34.002Z,77.71
2018-06-03T05:09:14.525Z,77.8
2018-06-03T05:09:55.051Z,77.32
2018-06-03T05:10:35.578Z,77.51
2018-06-03T05:11:16.120Z,77.22
2018-06-03T05:11:56.634Z,77.28
2018-06-03T05:12:37.144Z,77.71
2018-06-03T05:13:17.632Z,77.48
2018-06-03T05:13:58.144Z,77.61
2018-06-03T05:14:38.655Z,77.51
2018-06-03T05:15:19.179Z,77.42
2018-06-03T05:15:59.707Z,77.42
2018-06-03T05:16:40.217Z,77.51
2018-06-03T05:17:20.750Z,77.13
2018-06-03T05:18:01.301Z,76.78
2018-06-03T05:18:41.775Z,76.01
2018-06-03T05:19:22.296Z,75.81
2018-06-03T05:20:02.823Z,76.01
2018-06-03T05:20:43.337Z,76.45
2018-06-03T05:21:23.855Z,76.74
2018-06-03T05:22:04.393Z,77.32
2018-06-03T05:22:44.922Z,77.03
2018-06-03T05:23:25.465Z,77.71
2018-06-03T05:24:05.967Z,77.61
2018-06-03T05:24:46.510Z,77.22
2018-06-03T05:25:27.027Z,76.35
2018-06-03T05:26:07.552Z,76.64
2018-06-03T05:26:48.102Z,76.87
2018-06-03T05:27:28.611Z,75.91
2018-06-03T05:28:09.143Z,75.33
2018-06-03T05:28:49.651Z,75.62
2018-06-03T05:29:30.174Z,76.49
2018-06-03T05:30:10.704Z,76.84
2018-06-03T05:30:51.242Z,76.84
2018-06-03T05:31:31.765Z,77.51
2018-06-03T05:32:12.228Z,78.64
2018-06-03T05:32:52.758Z,78.64
2018-06-03T05:33:33.254Z,78.92
2018-06-03T05:34:13.764Z,78.44
2018-06-03T05:34:54.281Z,78.25
2018-06-03T05:35:34.751Z,78.92
2018-06-03T05:36:15.263Z,78.92
2018-06-03T05:36:55.779Z,78.87
2018-06-03T05:37:36.310Z,78.96
2018-06-03T05:38:16.825Z,78.38
2018-06-03T05:38:57.347Z,78.73
2018-06-03T05:39:37.882Z,79.12
2018-06-03T05:40:18.390Z,79.41
2018-06-03T05:40:58.920Z,79.41
2018-06-03T05:41:39.457Z,79.7
2018-06-03T05:42:19.979Z,79.6
2018-06-03T05:43:00.483Z,79.41
2018-06-03T05:43:41.010Z,79.12
2018-06-03T05:44:21.531Z,79.6
2018-06-03T05:45:02.073Z,79.41
2018-06-03T05:45:42.599Z,79.02
2018-06-03T05:46:23.121Z,78.83
2018-06-03T05:47:03.709Z,79.7
2018-06-03T05:47:44.199Z,79.6
2018-06-03T05:48:24.700Z,79.12
2018-06-03T05:49:05.230Z,79.06
2018-06-03T05:49:45.712Z,79.16
2018-06-03T05:50:26.232Z,78.96
2018-06-03T05:51:06.771Z,79.25
2018-06-03T05:51:47.302Z,79.83
2018-06-03T05:52:27.824Z,79.49
2018-06-03T05:53:08.333Z,77.84
2018-06-03T05:53:48.862Z,76.82
2018-06-03T05:54:29.395Z,75.4
2018-06-03T05:55:09.913Z,74.18
2018-06-03T05:55:50.442Z,73.79
2018-06-03T05:56:30.946Z,73.64
2018-06-03T05:57:11.460Z,72.96
2018-06-03T05:57:51.982Z,72.47
2018-06-03T05:58:32.499Z,72.12
2018-06-03T05:59:13.024Z,71.93
2018-06-03T05:59:53.594Z,71.73
2018-06-03T06:00:34.084Z,71.73
2018-06-03T06:01:14.615Z,71.93
2018-06-03T06:01:55.146Z,71.73
2018-06-03T06:02:35.647Z,71.64
2018-06-03T06:03:16.183Z,71.64
2018-06-03T06:03:56.709Z,71.44
2018-06-03T06:04:37.238Z,70.99
2018-06-03T06:05:17.762Z,70.67
2018-06-03T06:05:58.282Z,71.54
2018-06-03T06:06:38.815Z,71.73
2018-06-03T06:07:19.342Z,72.12
2018-06-03T06:07:59.872Z,71.93
2018-06-03T06:08:40.390Z,71.54
2018-06-03T06:09:20.915Z,71.54
2018-06-03T06:10:01.441Z,71.64
2018-06-03T06:10:41.984Z,71.25
2018-06-03T06:11:22.524Z,70.9
2018-06-03T06:12:03.048Z,70.21
2018-06-03T06:12:43.568Z,69.34
2018-06-03T06:13:24.083Z,69.28
2018-06-03T06:14:04.614Z,69.28
2018-06-03T06:14:45.132Z,69.09
2018-06-03T06:15:25.674Z,69.18
2018-06-03T06:16:06.389Z,68.54
2018-06-03T06:16:46.936Z,68.73
2018-06-03T06:17:27.474Z,68.54
2018-06-03T06:18:08.006Z,68.54
2018-06-03T06:18:48.549Z,68.15
2018-06-03T06:19:29.063Z,68.38
2018-06-03T06:20:09.650Z,68.38
2018-06-03T06:20:50.107Z,68.18
2018-06-03T06:21:30.620Z,67.5
2018-06-03T06:22:11.147Z,67.11
2018-06-03T06:22:51.652Z,67.11
2018-06-03T06:23:32.198Z,67.41
2018-06-03T06:24:12.727Z,67.41
2018-06-03T06:24:53.261Z,67.41
2018-06-03T06:25:33.779Z,67.11
2018-06-03T06:26:14.295Z,67.11
2018-06-03T06:26:54.803Z,67.31
2018-06-03T06:27:35.307Z,67.08
2018-06-03T06:28:15.842Z,67.37
2018-06-03T06:28:56.358Z,68.05
2018-06-03T06:29:36.871Z,68.51
2018-06-03T06:30:17.399Z,68.99
2018-06-03T06:30:57.919Z,69.76
2018-06-03T06:31:38.432Z,69.18
2018-06-03T06:32:18.987Z,69.54
2018-06-03T06:32:59.489Z,69.57
2018-06-03T06:33:40.030Z,69.57
2018-06-03T06:34:20.482Z,69.18
2018-06-03T06:35:00.979Z,68.54
2018-06-03T06:35:41.515Z,68.54
2018-06-03T06:36:22.105Z,68.44
2018-06-03T06:37:02.542Z,68.83
2018-06-03T06:37:43.042Z,68.99
2018-06-03T06:38:23.575Z,68.99
2018-06-03T06:39:04.100Z,69.22
2018-06-03T06:39:44.617Z,68.73
2018-06-03T06:40:25.126Z,68.83
2018-06-03T06:41:05.654Z,69.12
2018-06-03T06:41:46.212Z,69.09
2018-06-03T06:42:26.724Z,69.09
2018-06-03T06:43:07.414Z,69.02
2018-06-03T06:43:47.955Z,68.93
2018-06-03T06:44:28.464Z,69.09
2018-06-03T06:45:08.964Z,69.22
2018-06-03T06:45:49.458Z,69.12
2018-06-03T06:46:29.995Z,68.63
2018-06-03T06:47:10.511Z,68.38
2018-06-03T06:47:51.030Z,68.28
2018-06-03T06:48:31.511Z,68.48
2018-06-03T06:49:12.073Z,67.41
2018-06-03T06:49:52.621Z,67.5
2018-06-03T06:50:33.127Z,67.11
2018-06-03T06:51:13.615Z,66.56
2018-06-03T06:51:54.094Z,66.92
2018-06-03T06:52:34.588Z,67.02
2018-06-03T06:53:15.100Z,66.96
2018-06-03T06:53:55.618Z,66.96
2018-06-03T06:54:36.092Z,66.86
2018-06-03T06:55:16.619Z,66.96
2018-06-03T06:55:57.144Z,66.86
2018-06-03T06:56:37.618Z,66.27
2018-06-03T06:57:18.139Z,65.98
2018-06-03T06:57:58.615Z,65.98
2018-06-03T06:58:39.125Z,65.79
2018-06-03T06:59:19.622Z,65.69
2018-06-03T07:00:00.090Z,66.08
2018-06-03T07:00:40.619Z,65.5
2018-06-03T07:01:21.076Z,65.79
2018-06-03T07:02:01.580Z,65.69
2018-06-03T07:02:42.108Z,66.14
2018-06-03T07:03:22.594Z,66.17
2018-06-03T07:04:03.072Z,65.98
2018-06-03T07:04:43.547Z,66.27
2018-06-03T07:05:24.077Z,65.98
2018-06-03T07:06:04.597Z,66.34
2018-06-03T07:06:45.171Z,67.02
2018-06-03T07:07:25.784Z,67.11
2018-06-03T07:08:06.338Z,67.5
2018-06-03T07:08:46.819Z,66.63
2018-06-03T07:09:27.381Z,66.44
2018-06-03T07:10:07.873Z,65.79
2018-06-03T07:10:48.323Z,65.79
2018-06-03T07:11:28.829Z,65.89
2018-06-03T07:12:09.304Z,65.89
2018-06-03T07:12:49.790Z,66.08
2018-06-03T07:13:30.330Z,65.5
2018-06-03T07:14:10.811Z,65.59
2018-06-03T07:14:51.316Z,65.4
2018-06-03T07:15:31.871Z,65.11
2018-06-03T07:16:12.342Z,65.4
2018-06-03T07:16:52.814Z,64.65
2018-06-03T07:17:33.380Z,65.04
2018-06-03T07:18:13.934Z,64.95
2018-06-03T07:18:54.397Z,64.46
2018-06-03T07:19:34.883Z,64.81
2018-06-03T07:20:15.423Z,65.11
2018-06-03T07:20:55.914Z,65.2
2018-06-03T07:21:36.402Z,65.2
2018-06-03T07:22:16.857Z,65.5
2018-06-03T07:22:57.375Z,65.79
2018-06-03T07:23:37.877Z,65.79
2018-06-03T07:24:18.378Z,65.3
2018-06-03T07:24:58.882Z,65.33
2018-06-03T07:25:39.419Z,65.04
2018-06-03T07:26:19.908Z,65.63
2018-06-03T07:27:00.380Z,65.14
2018-06-03T07:27:40.876Z,65.63
2018-06-03T07:28:21.422Z,65.82
2018-06-03T07:29:01.892Z,65.4
2018-06-03T07:29:42.400Z,66.11
2018-06-03T07:30:22.888Z,65.79
2018-06-03T07:31:03.422Z,65.82
2018-06-03T07:31:43.938Z,65.43
2018-06-03T07:32:24.461Z,65.43
2018-06-03T07:33:04.981Z,65.43
2018-06-03T07:33:45.496Z,65.33
2018-06-03T07:34:25.994Z,65.53
2018-06-03T07:35:06.517Z,66.02
2018-06-03T07:35:47.033Z,65.43
2018-06-03T07:36:27.583Z,65.33
2018-06-03T07:37:08.096Z,64.95
2018-06-03T07:37:48.636Z,64.75
2018-06-03T07:38:29.137Z,64.65
2018-06-03T07:39:09.666Z,64.95
2018-06-03T07:39:50.202Z,64.95
2018-06-03T07:40:30.793Z,64.26
2018-06-03T07:41:11.340Z,64.95
2018-06-03T07:41:51.851Z,64.85
2018-06-03T07:42:32.388Z,65.33
2018-06-03T07:43:12.922Z,65.14
2018-06-03T07:43:53.448Z,64.95
2018-06-03T07:44:33.952Z,64.56
2018-06-03T07:45:14.465Z,64.95
2018-06-03T07:45:54.978Z,64.46
2018-06-03T07:46:35.510Z,64.65
2018-06-03T07:47:16.025Z,64.81
2018-06-03T07:47:56.540Z,65.04
2018-06-03T07:48:37.050Z,65.2
2018-06-03T07:49:17.585Z,64.91
2018-06-03T07:49:58.136Z,64.81
2018-06-03T07:50:38.656Z,65.33
2018-06-03T07:51:19.093Z,64.56
2018-06-03T07:51:59.611Z,64.65
2018-06-03T07:52:40.109Z,64.36
2018-06-03T07:53:20.592Z,64.36
2018-06-03T07:54:01.098Z,64.29
2018-06-03T07:54:41.582Z,64.36
2018-06-03T07:55:22.093Z,64.75
2018-06-03T07:56:02.638Z,64.72
2018-06-03T07:56:43.125Z,65.11
2018-06-03T07:57:23.701Z,64.72
2018-06-03T07:58:04.165Z,64.81
2018-06-03T07:58:44.730Z,64.91
2018-06-03T07:59:25.240Z,65.14
2018-06-03T08:00:05.769Z,65.98
2018-06-03T08:00:46.300Z,65.79
2018-06-03T08:01:26.883Z,65.5
2018-06-03T08:02:07.341Z,65.89
2018-06-03T08:02:47.866Z,65.63
2018-06-03T08:03:28.381Z,66.11
2018-06-03T08:04:08.892Z,65.63
2018-06-03T08:04:49.426Z,66.02
2018-06-03T08:05:29.941Z,65.82
2018-06-03T08:06:10.456Z,65.33
2018-06-03T08:06:51.065Z,65.53
2018-06-03T08:07:31.487Z,65.14
2018-06-03T08:08:11.997Z,64.85
2018-06-03T08:08:52.458Z,65.14
2018-06-03T08:09:33.019Z,65.63
2018-06-03T08:10:13.537Z,65.89
2018-06-03T08:10:54.079Z,65.3
2018-06-03T08:11:34.621Z,65.89
2018-06-03T08:12:15.135Z,65.59
2018-06-03T08:12:55.629Z,65.89
2018-06-03T08:13:36.126Z,66.08
2018-06-03T08:14:16.727Z,66.5
2018-06-03T08:14:57.193Z,66.08
2018-06-03T08:15:37.725Z,66.17
2018-06-03T08:16:18.226Z,66.17
2018-06-03T08:16:58.726Z,66.27
2018-06-03T08:17:39.265Z,66.37
2018-06-03T08:18:19.781Z,66.31
2018-06-03T08:19:00.318Z,66.69
2018-06-03T08:19:40.821Z,66.89
2018-06-03T08:20:21.317Z,66.11
2018-06-03T08:21:01.829Z,66.6
2018-06-03T08:21:42.364Z,65.53
2018-06-03T08:22:22.863Z,65.63
2018-06-03T08:23:03.417Z,65.43
2018-06-03T08:23:43.900Z,65.72
2018-06-03T08:24:24.417Z,66.02
2018-06-03T08:25:04.942Z,65.92
2018-06-03T08:25:45.416Z,65.92
2018-06-03T08:26:25.901Z,66.17
2018-06-03T08:27:06.495Z,65.98
2018-06-03T08:27:46.918Z,66.66
2018-06-03T08:28:27.383Z,67.31
2018-06-03T08:29:07.909Z,67.41
2018-06-03T08:29:48.429Z,68.38
2018-06-03T08:30:28.874Z,67.7
2018-06-03T08:31:09.392Z,67.7
2018-06-03T08:31:49.921Z,67.6
2018-06-03T08:32:30.367Z,68.08
2018-06-03T08:33:10.877Z,67.31
2018-06-03T08:33:51.394Z,67.76
2018-06-03T08:34:31.957Z,68.44
2018-06-03T08:35:12.502Z,67.8
2018-06-03T08:35:53.011Z,67.89
2018-06-03T08:36:33.554Z,67.11
2018-06-03T08:37:14.089Z,67.41
2018-06-03T08:37:54.606Z,67.31
2018-06-03T08:38:35.135Z,67.21
2018-06-03T08:39:15.665Z,67.6
2018-06-03T08:39:56.143Z,67.21
2018-06-03T08:40:36.653Z,67.7
2018-06-03T08:41:17.136Z,67.7
2018-06-03T08:41:57.632Z,67.31
2018-06-03T08:44:10.902Z,67.31
2018-06-03T08:44:51.405Z,67.31
2018-06-03T08:45:31.934Z,67.31